sensor_id;sensor_type;location;lat;lon;timestamp;temperature;humidity
9762;DHT22;4920;49.594;11.022;2022-10-19T00:01:15;13.00;99.90
9762;DHT22;4920;49.594;11.022;2022-10-19T00:03:46;13.00;99.90
9762;DHT22;4920;49.594;11.022;2022-10-19T00:06:17;12.90;99.90
9762;DHT22;4920;49.594;11.022;2022-10-19T00:08:46;12.90;99.90
9762;DHT22;4920;49.594;11.022;2022-10-19T00:11:14;12.80;99.90
9762;DHT22;4920;49.594;11.022;2022-10-19T00:13:42;12.80;99.90
9762;DHT22;4920;49.594;11.022;2022-10-19T00:16:13;12.80;99.90
9762;DHT22;4920;49.594;11.022;2022-10-19T00:18:43;12.80;99.90
9762;DHT22;4920;49.594;11.022;2022-10-19T00:21:13;12.80;99.90
9762;DHT22;4920;49.594;11.022;2022-10-19T00:23:42;12.70;99.90
9762;DHT22;4920;49.594;11.022;2022-10-19T00:26:11;12.70;99.90
9762;DHT22;4920;49.594;11.022;2022-10-19T00:28:40;12.60;99.90
9762;DHT22;4920;49.594;11.022;2022-10-19T00:31:10;12.50;99.90
9762;DHT22;4920;49.594;11.022;2022-10-19T00:33:40;12.50;99.90
9762;DHT22;4920;49.594;11.022;2022-10-19T00:36:14;12.50;99.90
9762;DHT22;4920;49.594;11.022;2022-10-19T00:38:43;12.40;99.90
9762;DHT22;4920;49.594;11.022;2022-10-19T00:41:11;12.40;99.90
9762;DHT22;4920;49.594;11.022;2022-10-19T00:43:51;12.30;99.90
9762;DHT22;4920;49.594;11.022;2022-10-19T00:46:20;12.40;99.90
9762;DHT22;4920;49.594;11.022;2022-10-19T00:48:50;12.40;99.90
9762;DHT22;4920;49.594;11.022;2022-10-19T00:51:19;12.40;99.90
9762;DHT22;4920;49.594;11.022;2022-10-19T00:53:48;12.40;99.90
9762;DHT22;4920;49.594;11.022;2022-10-19T00:56:17;12.40;99.90
9762;DHT22;4920;49.594;11.022;2022-10-19T00:58:45;12.50;99.90
9762;DHT22;4920;49.594;11.022;2022-10-19T01:01:16;12.50;99.90
9762;DHT22;4920;49.594;11.022;2022-10-19T01:03:47;12.50;99.90
9762;DHT22;4920;49.594;11.022;2022-10-19T01:06:17;12.50;99.90
9762;DHT22;4920;49.594;11.022;2022-10-19T01:08:46;12.50;99.90
9762;DHT22;4920;49.594;11.022;2022-10-19T01:11:24;12.50;99.90
9762;DHT22;4920;49.594;11.022;2022-10-19T01:13:59;12.50;99.90
9762;DHT22;4920;49.594;11.022;2022-10-19T01:16:35;12.50;99.90
9762;DHT22;4920;49.594;11.022;2022-10-19T01:19:27;12.50;99.90
9762;DHT22;4920;49.594;11.022;2022-10-19T01:22:08;12.50;99.90
9762;DHT22;4920;49.594;11.022;2022-10-19T01:24:52;12.40;99.90
9762;DHT22;4920;49.594;11.022;2022-10-19T01:27:42;12.40;99.90
9762;DHT22;4920;49.594;11.022;2022-10-19T01:30:23;12.40;99.90
9762;DHT22;4920;49.594;11.022;2022-10-19T01:33:18;12.40;99.90
9762;DHT22;4920;49.594;11.022;2022-10-19T01:35:56;12.40;99.90
9762;DHT22;4920;49.594;11.022;2022-10-19T01:38:34;12.30;99.90
9762;DHT22;4920;49.594;11.022;2022-10-19T01:41:11;12.30;99.90
9762;DHT22;4920;49.594;11.022;2022-10-19T01:43:45;12.30;99.90
9762;DHT22;4920;49.594;11.022;2022-10-19T01:46:20;12.30;99.90
9762;DHT22;4920;49.594;11.022;2022-10-19T01:48:57;12.20;99.90
9762;DHT22;4920;49.594;11.022;2022-10-19T01:51:31;12.20;99.90
9762;DHT22;4920;49.594;11.022;2022-10-19T01:54:03;12.20;99.90
9762;DHT22;4920;49.594;11.022;2022-10-19T01:56:33;12.20;99.90
9762;DHT22;4920;49.594;11.022;2022-10-19T01:59:05;12.20;99.90
9762;DHT22;4920;49.594;11.022;2022-10-19T02:01:38;12.10;99.90
9762;DHT22;4920;49.594;11.022;2022-10-19T02:04:09;12.10;99.90
9762;DHT22;4920;49.594;11.022;2022-10-19T02:06:38;12.10;99.90
9762;DHT22;4920;49.594;11.022;2022-10-19T02:09:06;12.10;99.90
9762;DHT22;4920;49.594;11.022;2022-10-19T02:11:36;12.10;99.90
9762;DHT22;4920;49.594;11.022;2022-10-19T02:14:08;12.10;99.90
9762;DHT22;4920;49.594;11.022;2022-10-19T02:16:40;12.10;99.90
9762;DHT22;4920;49.594;11.022;2022-10-19T02:19:12;12.10;99.90
9762;DHT22;4920;49.594;11.022;2022-10-19T02:21:42;12.00;99.90
9762;DHT22;4920;49.594;11.022;2022-10-19T02:24:10;12.00;99.90
9762;DHT22;4920;49.594;11.022;2022-10-19T02:26:39;11.90;99.90
9762;DHT22;4920;49.594;11.022;2022-10-19T02:29:09;11.90;99.90
9762;DHT22;4920;49.594;11.022;2022-10-19T02:35:24;11.80;99.90
9762;DHT22;4920;49.594;11.022;2022-10-19T02:37:53;11.70;99.90
9762;DHT22;4920;49.594;11.022;2022-10-19T02:40:21;11.70;99.90
9762;DHT22;4920;49.594;11.022;2022-10-19T02:42:53;11.70;99.90
9762;DHT22;4920;49.594;11.022;2022-10-19T02:45:26;11.60;99.90
9762;DHT22;4920;49.594;11.022;2022-10-19T02:47:58;11.50;99.90
9762;DHT22;4920;49.594;11.022;2022-10-19T02:50:29;11.50;99.90
9762;DHT22;4920;49.594;11.022;2022-10-19T02:52:58;11.50;99.90
9762;DHT22;4920;49.594;11.022;2022-10-19T02:55:27;11.40;99.90
9762;DHT22;4920;49.594;11.022;2022-10-19T02:57:56;11.40;99.90
9762;DHT22;4920;49.594;11.022;2022-10-19T03:00:24;11.40;99.90
9762;DHT22;4920;49.594;11.022;2022-10-19T03:02:52;11.40;99.90
9762;DHT22;4920;49.594;11.022;2022-10-19T03:05:20;11.40;99.90
9762;DHT22;4920;49.594;11.022;2022-10-19T03:07:50;11.40;99.90
9762;DHT22;4920;49.594;11.022;2022-10-19T03:10:19;11.40;99.90
9762;DHT22;4920;49.594;11.022;2022-10-19T03:12:47;11.40;99.90
9762;DHT22;4920;49.594;11.022;2022-10-19T03:15:16;11.40;99.90
9762;DHT22;4920;49.594;11.022;2022-10-19T03:17:45;11.40;99.90
9762;DHT22;4920;49.594;11.022;2022-10-19T03:20:13;11.50;99.90
9762;DHT22;4920;49.594;11.022;2022-10-19T03:22:41;11.50;99.90
9762;DHT22;4920;49.594;11.022;2022-10-19T03:25:11;11.50;99.90
9762;DHT22;4920;49.594;11.022;2022-10-19T03:27:39;11.50;99.90
9762;DHT22;4920;49.594;11.022;2022-10-19T03:30:08;11.50;99.90
9762;DHT22;4920;49.594;11.022;2022-10-19T03:32:37;11.60;99.90
9762;DHT22;4920;49.594;11.022;2022-10-19T03:35:06;11.60;99.90
9762;DHT22;4920;49.594;11.022;2022-10-19T03:37:34;11.60;99.90
9762;DHT22;4920;49.594;11.022;2022-10-19T03:40:04;11.60;99.90
9762;DHT22;4920;49.594;11.022;2022-10-19T03:42:34;11.60;99.90
9762;DHT22;4920;49.594;11.022;2022-10-19T03:45:02;11.60;99.90
9762;DHT22;4920;49.594;11.022;2022-10-19T03:47:31;11.50;99.90
9762;DHT22;4920;49.594;11.022;2022-10-19T03:49:59;11.60;99.90
9762;DHT22;4920;49.594;11.022;2022-10-19T03:52:27;11.50;99.90
9762;DHT22;4920;49.594;11.022;2022-10-19T03:54:56;11.50;99.90
9762;DHT22;4920;49.594;11.022;2022-10-19T03:57:24;11.50;99.90
9762;DHT22;4920;49.594;11.022;2022-10-19T03:59:54;11.50;99.90
9762;DHT22;4920;49.594;11.022;2022-10-19T04:02:23;11.50;99.90
9762;DHT22;4920;49.594;11.022;2022-10-19T04:04:51;11.50;99.90
9762;DHT22;4920;49.594;11.022;2022-10-19T04:07:20;11.40;99.90
9762;DHT22;4920;49.594;11.022;2022-10-19T04:09:48;11.40;99.90
9762;DHT22;4920;49.594;11.022;2022-10-19T04:12:16;11.40;99.90
9762;DHT22;4920;49.594;11.022;2022-10-19T04:14:45;11.50;99.90
9762;DHT22;4920;49.594;11.022;2022-10-19T04:17:25;11.40;99.90
9762;DHT22;4920;49.594;11.022;2022-10-19T04:19:53;11.40;99.90
9762;DHT22;4920;49.594;11.022;2022-10-19T04:22:21;11.30;99.90
9762;DHT22;4920;49.594;11.022;2022-10-19T04:24:49;11.30;99.90
9762;DHT22;4920;49.594;11.022;2022-10-19T04:27:18;11.30;99.90
9762;DHT22;4920;49.594;11.022;2022-10-19T04:29:47;11.30;99.90
9762;DHT22;4920;49.594;11.022;2022-10-19T04:32:15;11.30;99.90
9762;DHT22;4920;49.594;11.022;2022-10-19T04:34:45;11.30;99.90
9762;DHT22;4920;49.594;11.022;2022-10-19T04:37:13;11.20;99.90
9762;DHT22;4920;49.594;11.022;2022-10-19T04:39:41;11.10;99.90
9762;DHT22;4920;49.594;11.022;2022-10-19T04:42:10;11.10;99.90
9762;DHT22;4920;49.594;11.022;2022-10-19T04:44:38;11.10;99.90
9762;DHT22;4920;49.594;11.022;2022-10-19T04:47:09;11.10;99.90
9762;DHT22;4920;49.594;11.022;2022-10-19T04:49:37;11.10;99.90
9762;DHT22;4920;49.594;11.022;2022-10-19T04:52:07;11.00;99.90
9762;DHT22;4920;49.594;11.022;2022-10-19T04:54:35;11.10;99.90
9762;DHT22;4920;49.594;11.022;2022-10-19T04:57:04;11.10;99.90
9762;DHT22;4920;49.594;11.022;2022-10-19T04:59:32;11.00;99.90
9762;DHT22;4920;49.594;11.022;2022-10-19T05:02:00;11.00;99.90
9762;DHT22;4920;49.594;11.022;2022-10-19T05:04:29;11.00;99.90
9762;DHT22;4920;49.594;11.022;2022-10-19T05:06:57;11.00;99.90
9762;DHT22;4920;49.594;11.022;2022-10-19T05:09:27;11.00;99.90
9762;DHT22;4920;49.594;11.022;2022-10-19T05:11:55;11.00;99.90
9762;DHT22;4920;49.594;11.022;2022-10-19T05:14:23;10.90;99.90
9762;DHT22;4920;49.594;11.022;2022-10-19T05:16:55;11.00;99.90
9762;DHT22;4920;49.594;11.022;2022-10-19T05:19:23;11.00;99.90
9762;DHT22;4920;49.594;11.022;2022-10-19T05:21:51;11.00;99.90
9762;DHT22;4920;49.594;11.022;2022-10-19T05:24:20;11.00;99.90
9762;DHT22;4920;49.594;11.022;2022-10-19T05:26:49;11.10;99.90
9762;DHT22;4920;49.594;11.022;2022-10-19T05:29:18;11.10;99.90
9762;DHT22;4920;49.594;11.022;2022-10-19T05:31:46;11.10;99.90
9762;DHT22;4920;49.594;11.022;2022-10-19T05:34:15;11.10;99.90
9762;DHT22;4920;49.594;11.022;2022-10-19T05:36:43;11.10;99.90
9762;DHT22;4920;49.594;11.022;2022-10-19T05:39:13;11.10;99.90
9762;DHT22;4920;49.594;11.022;2022-10-19T05:41:42;11.10;99.90
9762;DHT22;4920;49.594;11.022;2022-10-19T05:44:14;11.10;99.90
9762;DHT22;4920;49.594;11.022;2022-10-19T05:46:43;11.20;99.90
9762;DHT22;4920;49.594;11.022;2022-10-19T05:49:12;11.10;99.90
9762;DHT22;4920;49.594;11.022;2022-10-19T05:51:41;11.10;99.90
9762;DHT22;4920;49.594;11.022;2022-10-19T05:54:09;11.20;99.90
9762;DHT22;4920;49.594;11.022;2022-10-19T05:56:39;11.20;99.90
9762;DHT22;4920;49.594;11.022;2022-10-19T05:59:10;11.20;99.90
9762;DHT22;4920;49.594;11.022;2022-10-19T06:01:42;11.20;99.90
9762;DHT22;4920;49.594;11.022;2022-10-19T06:04:10;11.30;99.90
9762;DHT22;4920;49.594;11.022;2022-10-19T06:06:41;11.30;99.90
9762;DHT22;4920;49.594;11.022;2022-10-19T06:09:09;11.30;99.90
9762;DHT22;4920;49.594;11.022;2022-10-19T06:11:40;11.40;99.90
9762;DHT22;4920;49.594;11.022;2022-10-19T06:14:12;11.40;99.90
9762;DHT22;4920;49.594;11.022;2022-10-19T06:16:42;11.50;99.90
9762;DHT22;4920;49.594;11.022;2022-10-19T06:19:12;11.40;99.90
9762;DHT22;4920;49.594;11.022;2022-10-19T06:21:42;11.50;99.90
9762;DHT22;4920;49.594;11.022;2022-10-19T06:24:11;11.50;99.90
9762;DHT22;4920;49.594;11.022;2022-10-19T06:26:40;11.50;99.90
9762;DHT22;4920;49.594;11.022;2022-10-19T06:29:08;11.50;99.90
9762;DHT22;4920;49.594;11.022;2022-10-19T06:31:37;11.60;99.90
9762;DHT22;4920;49.594;11.022;2022-10-19T06:34:06;11.60;99.90
9762;DHT22;4920;49.594;11.022;2022-10-19T06:36:35;11.60;99.90
9762;DHT22;4920;49.594;11.022;2022-10-19T06:39:03;11.60;99.90
9762;DHT22;4920;49.594;11.022;2022-10-19T06:41:32;11.60;99.90
9762;DHT22;4920;49.594;11.022;2022-10-19T06:44:17;11.60;99.90
9762;DHT22;4920;49.594;11.022;2022-10-19T06:46:45;11.70;99.90
9762;DHT22;4920;49.594;11.022;2022-10-19T06:49:15;11.70;99.90
9762;DHT22;4920;49.594;11.022;2022-10-19T06:51:43;11.90;99.90
9762;DHT22;4920;49.594;11.022;2022-10-19T06:54:11;11.80;99.90
9762;DHT22;4920;49.594;11.022;2022-10-19T06:56:40;11.80;99.90
9762;DHT22;4920;49.594;11.022;2022-10-19T06:59:08;11.80;99.90
9762;DHT22;4920;49.594;11.022;2022-10-19T07:01:40;11.70;99.90
9762;DHT22;4920;49.594;11.022;2022-10-19T07:04:09;11.70;99.90
9762;DHT22;4920;49.594;11.022;2022-10-19T07:06:38;11.70;99.90
9762;DHT22;4920;49.594;11.022;2022-10-19T07:09:07;11.60;99.90
9762;DHT22;4920;49.594;11.022;2022-10-19T07:11:35;11.60;99.90
9762;DHT22;4920;49.594;11.022;2022-10-19T07:14:11;11.50;99.90
9762;DHT22;4920;49.594;11.022;2022-10-19T07:16:39;11.60;99.90
9762;DHT22;4920;49.594;11.022;2022-10-19T07:19:08;11.60;99.90
9762;DHT22;4920;49.594;11.022;2022-10-19T07:21:37;11.60;99.90
9762;DHT22;4920;49.594;11.022;2022-10-19T07:24:07;11.50;99.90
9762;DHT22;4920;49.594;11.022;2022-10-19T07:26:36;11.50;99.90
9762;DHT22;4920;49.594;11.022;2022-10-19T07:29:04;11.50;99.90
9762;DHT22;4920;49.594;11.022;2022-10-19T07:31:33;11.50;99.90
9762;DHT22;4920;49.594;11.022;2022-10-19T07:34:03;11.60;99.90
9762;DHT22;4920;49.594;11.022;2022-10-19T07:36:33;11.60;94.30
9762;DHT22;4920;49.594;11.022;2022-10-19T07:39:04;11.60;99.90
9762;DHT22;4920;49.594;11.022;2022-10-19T07:41:33;11.70;99.90
9762;DHT22;4920;49.594;11.022;2022-10-19T07:44:02;11.70;86.50
9762;DHT22;4920;49.594;11.022;2022-10-19T07:46:31;11.70;27.70
9762;DHT22;4920;49.594;11.022;2022-10-19T07:49:04;11.70;19.70
9762;DHT22;4920;49.594;11.022;2022-10-19T07:51:33;11.60;21.70
9762;DHT22;4920;49.594;11.022;2022-10-19T07:54:02;11.70;37.30
9762;DHT22;4920;49.594;11.022;2022-10-19T07:56:31;11.70;57.00
9762;DHT22;4920;49.594;11.022;2022-10-19T07:59:00;11.70;71.40
9762;DHT22;4920;49.594;11.022;2022-10-19T08:01:30;11.80;76.10
9762;DHT22;4920;49.594;11.022;2022-10-19T08:03:59;11.90;49.80
9762;DHT22;4920;49.594;11.022;2022-10-19T08:06:48;11.90;43.10
9762;DHT22;4920;49.594;11.022;2022-10-19T08:09:18;12.00;29.70
9762;DHT22;4920;49.594;11.022;2022-10-19T08:12:06;12.00;20.60
9762;DHT22;4920;49.594;11.022;2022-10-19T08:14:40;12.00;29.10
9762;DHT22;4920;49.594;11.022;2022-10-19T08:17:09;12.10;51.00
9762;DHT22;4920;49.594;11.022;2022-10-19T08:19:42;12.20;41.40
9762;DHT22;4920;49.594;11.022;2022-10-19T08:22:11;12.20;21.10
9762;DHT22;4920;49.594;11.022;2022-10-19T08:24:41;12.30;1.00
9762;DHT22;4920;49.594;11.022;2022-10-19T08:27:09;12.30;1.00
9762;DHT22;4920;49.594;11.022;2022-10-19T08:29:37;12.20;1.00
9762;DHT22;4920;49.594;11.022;2022-10-19T08:32:06;12.30;1.00
9762;DHT22;4920;49.594;11.022;2022-10-19T08:34:34;12.20;1.00
9762;DHT22;4920;49.594;11.022;2022-10-19T08:37:02;12.20;1.00
9762;DHT22;4920;49.594;11.022;2022-10-19T08:39:52;12.10;1.00
9762;DHT22;4920;49.594;11.022;2022-10-19T08:42:25;12.00;1.00
9762;DHT22;4920;49.594;11.022;2022-10-19T08:45:20;12.00;3.50
9762;DHT22;4920;49.594;11.022;2022-10-19T08:47:58;12.10;8.80
9762;DHT22;4920;49.594;11.022;2022-10-19T08:50:33;12.20;16.20
9762;DHT22;4920;49.594;11.022;2022-10-19T08:53:05;12.40;1.00
9762;DHT22;4920;49.594;11.022;2022-10-19T08:55:49;12.50;14.10
9762;DHT22;4920;49.594;11.022;2022-10-19T08:58:38;12.70;1.00
9762;DHT22;4920;49.594;11.022;2022-10-19T09:01:14;12.80;1.00
9762;DHT22;4920;49.594;11.022;2022-10-19T09:03:45;12.90;1.00
9762;DHT22;4920;49.594;11.022;2022-10-19T09:06:25;12.90;1.00
9762;DHT22;4920;49.594;11.022;2022-10-19T09:08:56;13.00;1.00
9762;DHT22;4920;49.594;11.022;2022-10-19T09:11:28;13.00;1.00
9762;DHT22;4920;49.594;11.022;2022-10-19T09:14:02;13.10;1.00
9762;DHT22;4920;49.594;11.022;2022-10-19T09:16:32;13.30;1.00
9762;DHT22;4920;49.594;11.022;2022-10-19T09:19:02;13.60;1.00
9762;DHT22;4920;49.594;11.022;2022-10-19T09:21:37;13.80;1.00
9762;DHT22;4920;49.594;11.022;2022-10-19T09:24:20;14.00;1.00
9762;DHT22;4920;49.594;11.022;2022-10-19T09:26:56;14.20;99.90
9762;DHT22;4920;49.594;11.022;2022-10-19T09:29:29;14.40;45.80
9762;DHT22;4920;49.594;11.022;2022-10-19T09:32:00;14.60;99.90
9762;DHT22;4920;49.594;11.022;2022-10-19T09:34:33;14.80;1.00
9762;DHT22;4920;49.594;11.022;2022-10-19T09:37:03;15.00;1.00
9762;DHT22;4920;49.594;11.022;2022-10-19T09:39:31;15.10;1.00
9762;DHT22;4920;49.594;11.022;2022-10-19T09:42:12;15.30;99.90
9762;DHT22;4920;49.594;11.022;2022-10-19T09:44:45;15.60;95.00
9762;DHT22;4920;49.594;11.022;2022-10-19T09:47:27;15.80;1.00
9762;DHT22;4920;49.594;11.022;2022-10-19T09:50:07;15.90;1.00
9762;DHT22;4920;49.594;11.022;2022-10-19T09:52:37;15.90;99.90
9762;DHT22;4920;49.594;11.022;2022-10-19T09:55:19;15.90;99.90
9762;DHT22;4920;49.594;11.022;2022-10-19T09:57:58;15.90;1.00
9762;DHT22;4920;49.594;11.022;2022-10-19T10:00:33;16.20;1.00
9762;DHT22;4920;49.594;11.022;2022-10-19T10:03:02;16.40;99.90
9762;DHT22;4920;49.594;11.022;2022-10-19T10:05:33;16.40;1.00
9762;DHT22;4920;49.594;11.022;2022-10-19T10:08:03;16.70;1.00
9762;DHT22;4920;49.594;11.022;2022-10-19T10:10:36;17.10;1.00
9762;DHT22;4920;49.594;11.022;2022-10-19T10:13:12;17.60;1.00
9762;DHT22;4920;49.594;11.022;2022-10-19T10:15:46;18.10;1.00
9762;DHT22;4920;49.594;11.022;2022-10-19T10:18:16;18.50;1.00
9762;DHT22;4920;49.594;11.022;2022-10-19T10:20:57;18.90;1.00
9762;DHT22;4920;49.594;11.022;2022-10-19T10:23:28;19.40;99.90
9762;DHT22;4920;49.594;11.022;2022-10-19T10:26:00;19.70;99.90
9762;DHT22;4920;49.594;11.022;2022-10-19T10:28:30;19.80;1.00
9762;DHT22;4920;49.594;11.022;2022-10-19T10:31:01;19.80;1.00
9762;DHT22;4920;49.594;11.022;2022-10-19T10:33:32;19.60;1.00
9762;DHT22;4920;49.594;11.022;2022-10-19T10:36:23;19.40;1.00
9762;DHT22;4920;49.594;11.022;2022-10-19T10:38:57;19.20;1.00
9762;DHT22;4920;49.594;11.022;2022-10-19T10:41:33;19.10;46.00
9762;DHT22;4920;49.594;11.022;2022-10-19T10:44:18;19.00;55.80
9762;DHT22;4920;49.594;11.022;2022-10-19T10:46:52;18.90;1.00
9762;DHT22;4920;49.594;11.022;2022-10-19T10:49:24;18.70;1.00
9762;DHT22;4920;49.594;11.022;2022-10-19T10:51:55;18.40;51.50
9762;DHT22;4920;49.594;11.022;2022-10-19T10:54:26;18.30;99.90
9762;DHT22;4920;49.594;11.022;2022-10-19T10:57:12;18.20;99.90
9762;DHT22;4920;49.594;11.022;2022-10-19T10:59:54;18.30;99.90
9762;DHT22;4920;49.594;11.022;2022-10-19T11:02:32;18.30;1.00
9762;DHT22;4920;49.594;11.022;2022-10-19T11:05:06;18.40;99.90
9762;DHT22;4920;49.594;11.022;2022-10-19T11:07:40;18.40;99.90
9762;DHT22;4920;49.594;11.022;2022-10-19T11:10:22;18.30;99.90
9762;DHT22;4920;49.594;11.022;2022-10-19T11:13:01;18.30;99.90
9762;DHT22;4920;49.594;11.022;2022-10-19T11:15:36;18.20;99.90
9762;DHT22;4920;49.594;11.022;2022-10-19T11:18:14;18.30;99.90
9762;DHT22;4920;49.594;11.022;2022-10-19T11:20:52;18.40;99.90
9762;DHT22;4920;49.594;11.022;2022-10-19T11:23:33;18.50;99.90
9762;DHT22;4920;49.594;11.022;2022-10-19T11:26:13;18.80;99.90
9762;DHT22;4920;49.594;11.022;2022-10-19T11:28:56;19.10;1.00
9762;DHT22;4920;49.594;11.022;2022-10-19T11:31:37;19.50;1.00
9762;DHT22;4920;49.594;11.022;2022-10-19T11:34:38;20.00;1.00
9762;DHT22;4920;49.594;11.022;2022-10-19T11:37:14;20.50;1.00
9762;DHT22;4920;49.594;11.022;2022-10-19T11:39:57;20.60;1.00
9762;DHT22;4920;49.594;11.022;2022-10-19T11:42:40;20.80;1.00
9762;DHT22;4920;49.594;11.022;2022-10-19T11:45:18;20.80;99.90
9762;DHT22;4920;49.594;11.022;2022-10-19T11:48:01;20.90;99.90
9762;DHT22;4920;49.594;11.022;2022-10-19T11:50:39;20.90;99.90
9762;DHT22;4920;49.594;11.022;2022-10-19T11:53:28;20.70;99.90
9762;DHT22;4920;49.594;11.022;2022-10-19T11:56:02;20.40;99.90
9762;DHT22;4920;49.594;11.022;2022-10-19T11:58:41;20.00;99.90
9762;DHT22;4920;49.594;11.022;2022-10-19T12:01:15;19.80;99.90
9762;DHT22;4920;49.594;11.022;2022-10-19T12:04:25;19.80;1.00
9762;DHT22;4920;49.594;11.022;2022-10-19T12:07:06;19.70;1.00
9762;DHT22;4920;49.594;11.022;2022-10-19T12:09:43;19.60;1.00
9762;DHT22;4920;49.594;11.022;2022-10-19T12:12:22;19.50;1.00
9762;DHT22;4920;49.594;11.022;2022-10-19T12:15:02;19.50;1.00
9762;DHT22;4920;49.594;11.022;2022-10-19T12:17:35;19.60;1.00
9762;DHT22;4920;49.594;11.022;2022-10-19T12:20:18;19.60;1.00
9762;DHT22;4920;49.594;11.022;2022-10-19T12:22:49;19.60;1.00
9762;DHT22;4920;49.594;11.022;2022-10-19T12:25:20;19.30;1.00
9762;DHT22;4920;49.594;11.022;2022-10-19T12:27:52;19.20;1.00
9762;DHT22;4920;49.594;11.022;2022-10-19T12:30:22;19.00;1.00
9762;DHT22;4920;49.594;11.022;2022-10-19T12:33:04;18.90;1.00
9762;DHT22;4920;49.594;11.022;2022-10-19T12:35:51;18.70;1.00
9762;DHT22;4920;49.594;11.022;2022-10-19T12:38:29;18.50;99.90
9762;DHT22;4920;49.594;11.022;2022-10-19T12:41:04;18.50;99.90
9762;DHT22;4920;49.594;11.022;2022-10-19T12:43:42;18.50;99.90
9762;DHT22;4920;49.594;11.022;2022-10-19T12:46:18;18.40;99.90
9762;DHT22;4920;49.594;11.022;2022-10-19T12:51:52;18.30;99.90
9762;DHT22;4920;49.594;11.022;2022-10-19T12:54:23;18.10;95.20
9762;DHT22;4920;49.594;11.022;2022-10-19T12:56:54;18.00;99.90
9762;DHT22;4920;49.594;11.022;2022-10-19T12:59:25;17.80;99.90
9762;DHT22;4920;49.594;11.022;2022-10-19T13:01:57;17.60;99.90
9762;DHT22;4920;49.594;11.022;2022-10-19T13:04:27;17.50;1.00
9762;DHT22;4920;49.594;11.022;2022-10-19T13:07:01;17.60;1.00
9762;DHT22;4920;49.594;11.022;2022-10-19T13:09:32;18.00;1.00
9762;DHT22;4920;49.594;11.022;2022-10-19T13:12:39;18.40;99.90
9762;DHT22;4920;49.594;11.022;2022-10-19T13:24:40;18.80;1.00
9762;DHT22;4920;49.594;11.022;2022-10-19T13:27:41;18.30;1.00
9762;DHT22;4920;49.594;11.022;2022-10-19T13:33:46;17.70;99.90
9762;DHT22;4920;49.594;11.022;2022-10-19T13:36:15;17.40;99.90
9762;DHT22;4920;49.594;11.022;2022-10-19T13:38:46;17.40;99.90
9762;DHT22;4920;49.594;11.022;2022-10-19T13:41:19;17.50;99.90
9762;DHT22;4920;49.594;11.022;2022-10-19T13:44:02;17.50;99.90
9762;DHT22;4920;49.594;11.022;2022-10-19T13:46:43;17.50;99.90
9762;DHT22;4920;49.594;11.022;2022-10-19T13:49:31;17.70;99.90
9762;DHT22;4920;49.594;11.022;2022-10-19T13:55:25;18.30;1.00
9762;DHT22;4920;49.594;11.022;2022-10-19T13:58:09;18.70;1.00
9762;DHT22;4920;49.594;11.022;2022-10-19T14:01:01;19.00;1.00
9762;DHT22;4920;49.594;11.022;2022-10-19T14:03:48;18.90;1.00
9762;DHT22;4920;49.594;11.022;2022-10-19T14:06:27;18.70;1.00
9762;DHT22;4920;49.594;11.022;2022-10-19T14:12:20;18.90;1.00
9762;DHT22;4920;49.594;11.022;2022-10-19T14:14:53;19.10;1.00
9762;DHT22;4920;49.594;11.022;2022-10-19T14:17:24;19.10;1.00
9762;DHT22;4920;49.594;11.022;2022-10-19T14:19:55;19.20;1.00
9762;DHT22;4920;49.594;11.022;2022-10-19T14:22:27;19.20;1.00
9762;DHT22;4920;49.594;11.022;2022-10-19T14:25:02;19.20;1.00
9762;DHT22;4920;49.594;11.022;2022-10-19T14:27:32;19.20;1.00
9762;DHT22;4920;49.594;11.022;2022-10-19T14:30:05;19.30;1.00
9762;DHT22;4920;49.594;11.022;2022-10-19T14:32:34;19.30;99.90
9762;DHT22;4920;49.594;11.022;2022-10-19T14:35:12;19.20;99.90
9762;DHT22;4920;49.594;11.022;2022-10-19T14:37:45;19.00;99.90
9762;DHT22;4920;49.594;11.022;2022-10-19T14:40:26;18.70;99.90
9762;DHT22;4920;49.594;11.022;2022-10-19T14:42:58;18.50;99.90
9762;DHT22;4920;49.594;11.022;2022-10-19T14:45:30;18.20;99.90
9762;DHT22;4920;49.594;11.022;2022-10-19T14:48:02;18.10;1.00
9762;DHT22;4920;49.594;11.022;2022-10-19T14:50:40;17.90;1.00
9762;DHT22;4920;49.594;11.022;2022-10-19T14:53:29;17.80;1.00
9762;DHT22;4920;49.594;11.022;2022-10-19T14:56:10;17.80;1.00
9762;DHT22;4920;49.594;11.022;2022-10-19T14:58:46;17.80;1.00
9762;DHT22;4920;49.594;11.022;2022-10-19T15:01:19;17.80;1.00
9762;DHT22;4920;49.594;11.022;2022-10-19T15:03:49;17.80;1.00
9762;DHT22;4920;49.594;11.022;2022-10-19T15:06:21;17.80;1.00
9762;DHT22;4920;49.594;11.022;2022-10-19T15:08:54;17.70;1.00
9762;DHT22;4920;49.594;11.022;2022-10-19T15:11:26;17.60;1.00
9762;DHT22;4920;49.594;11.022;2022-10-19T15:14:05;17.70;1.00
9762;DHT22;4920;49.594;11.022;2022-10-19T15:16:43;17.60;1.00
9762;DHT22;4920;49.594;11.022;2022-10-19T15:19:26;17.50;1.00
9762;DHT22;4920;49.594;11.022;2022-10-19T15:22:10;17.40;1.00
9762;DHT22;4920;49.594;11.022;2022-10-19T15:24:39;17.30;21.20
9762;DHT22;4920;49.594;11.022;2022-10-19T15:27:09;17.20;54.40
9762;DHT22;4920;49.594;11.022;2022-10-19T15:29:53;17.20;99.90
9762;DHT22;4920;49.594;11.022;2022-10-19T15:32:24;17.20;99.90
9762;DHT22;4920;49.594;11.022;2022-10-19T15:34:57;17.10;99.90
9762;DHT22;4920;49.594;11.022;2022-10-19T15:37:25;17.10;99.90
9762;DHT22;4920;49.594;11.022;2022-10-19T15:39:54;17.10;99.90
9762;DHT22;4920;49.594;11.022;2022-10-19T15:42:32;17.00;99.90
9762;DHT22;4920;49.594;11.022;2022-10-19T15:45:02;16.90;99.90
9762;DHT22;4920;49.594;11.022;2022-10-19T15:47:32;16.70;1.00
9762;DHT22;4920;49.594;11.022;2022-10-19T15:50:01;16.50;1.00
9762;DHT22;4920;49.594;11.022;2022-10-19T15:52:32;16.30;1.00
9762;DHT22;4920;49.594;11.022;2022-10-19T15:55:00;16.10;13.80
9762;DHT22;4920;49.594;11.022;2022-10-19T15:57:31;16.00;99.90
9762;DHT22;4920;49.594;11.022;2022-10-19T16:00:06;15.90;99.90
9762;DHT22;4920;49.594;11.022;2022-10-19T16:02:39;15.80;1.00
9762;DHT22;4920;49.594;11.022;2022-10-19T16:05:07;15.60;1.00
9762;DHT22;4920;49.594;11.022;2022-10-19T16:07:38;15.40;1.00
9762;DHT22;4920;49.594;11.022;2022-10-19T16:10:14;15.30;99.90
9762;DHT22;4920;49.594;11.022;2022-10-19T16:12:43;15.10;1.00
9762;DHT22;4920;49.594;11.022;2022-10-19T16:15:12;14.90;1.00
9762;DHT22;4920;49.594;11.022;2022-10-19T16:17:44;14.80;99.90
9762;DHT22;4920;49.594;11.022;2022-10-19T16:20:13;14.60;1.00
9762;DHT22;4920;49.594;11.022;2022-10-19T16:22:42;14.50;96.70
9762;DHT22;4920;49.594;11.022;2022-10-19T16:25:11;14.40;99.90
9762;DHT22;4920;49.594;11.022;2022-10-19T16:27:40;14.30;1.00
9762;DHT22;4920;49.594;11.022;2022-10-19T16:30:09;14.20;1.00
9762;DHT22;4920;49.594;11.022;2022-10-19T16:32:38;14.00;99.90
9762;DHT22;4920;49.594;11.022;2022-10-19T16:35:09;13.90;1.00
9762;DHT22;4920;49.594;11.022;2022-10-19T16:37:37;13.80;99.90
9762;DHT22;4920;49.594;11.022;2022-10-19T16:40:07;13.70;1.00
9762;DHT22;4920;49.594;11.022;2022-10-19T16:42:35;13.60;99.90
9762;DHT22;4920;49.594;11.022;2022-10-19T16:45:05;13.50;47.20
9762;DHT22;4920;49.594;11.022;2022-10-19T16:47:34;13.50;1.00
9762;DHT22;4920;49.594;11.022;2022-10-19T16:50:04;13.50;99.90
9762;DHT22;4920;49.594;11.022;2022-10-19T16:52:34;13.40;91.20